Aviation weather information 2020-02-28 07:10 UTC

TAF(FCEO32)
FCEO32 EETN 280400
TAF EEKA 280400Z 2805/2811 04010KT 5000 SN BKN007 BKN020 TEMPO
     2805/2808 1500 +SHSN BKN005 SCT015CB BECMG 2808/2810 34010KT
     9999 NSW BKN025=
FCEO32 EETN 280600
TAF EEKE 280600Z 2807/2813 30008KT 9999 BKN030 TEMPO 2807/2810
     3000 SHSN BKN005 SCT015CB=

TAF(FTEO31)
FTEO31 EETN 280500
TAF EETN 280530Z 2806/2906 02010KT 9999 BKN020 TEMPO 2806/2810
     1500 SHSN BKN006 SCT015CB BECMG 2813/2815 29010KT BECMG
     2822/2824 22004KT=

TAF(FTEO33)
FTEO33 EEEI 280530
TAF EEEI 280530Z 2806/2906 01010KT 9000 -SN BKN012 BKN030  BECMG
      2808/2810 9999 SCT025  BECMG 2814/2816 30010KT  BECMG
     2902/2904 20008KT= 

Hoiatus(ADEO31)
ADEO31 EETN 272051
HOIATUS 1 TALLINNA LENNUVALJA KOHTA KEHTIB 272200/280900
ON OODATA LUMESADU TUGEVNEB=

AD-WRNG(ADEO32)
ADEO32 EETN 280407
EEKA AD WRNG 1 VALID 280410/280800
SN OBS NC=

Weather observation (METAR/SPECI)
METAR EETN 280650Z 36008KT 320V030 9999 -SN BKN014 OVC020 M02/M04
Q0998 R08/920195 NOSIG=
METAR EEEI 280650Z 02008KT 9999 -SN FEW010 OVC045 M02/M04 Q0998
R06/290095 NOSIG=
METAR EETU 280650Z 33005KT 9999 SCT024 BKN037 M04/M04 Q0995=
METAR EEPU 280650Z 32005KT 8000 -SN SCT011 BKN028 M04/M04 Q0997=
METAR EEKE 280650Z 35003KT 9999 FEW033 M03/M04 Q0999 R17/190095=
METAR EEKA 280650Z 01012KT 8000 -SHSN BKN008 FEW016CB OVC036 M01/M03
Q0999=